Aeroporto :
LOGIN :

Iscrizione | Disclaimer

   EN    FR    IT 

 










Sommario :    VFR   VFR Marginale   IFR   IFR Intensivo   IFR Molto Intensivo
Visibilità : 
Base nubi : 
>= 8 km
>= 3000ft
5 / 8 km
1000 / 3000 ft
1500m / 5 km
500 / 1000 ft
800 / 1500m
200 / 500 ft
< 800m
< 200 ft
Simboli :   Temporali  Nebbia  Neve Forte  Precipitazioni Forti  Vento > 20 kt
SIGMETs :   Varie  Temporali  Ghiacco  Turbolenza  Onda orograficha  Ceneri Vulcaniche






- Altitudine del aeroporto : 56 ft
- Codice IATA : TRD


ENVA - Trondheim , Værnes

ULTIMO METAR :
  • 200120Z 33013KT 310V010 9999 VCSH FEW008 SCT011 BKN061 M01/M05 Q1003 RMK WIND 670FT 34024G38KT

METARs OBSOLETI :
  • 200050Z 33018G31KT 290V350 1200 -SHSN FEW003 SCT012 BKN031 M02/M03 Q1002 RMK WIND 670FT 33033G46KT
  • 200020Z 36006KT 290V070 9000 -SHSN BKN016 M02/M03 Q1002 RESHSN RMK WIND 670FT 35018KT
  • 192350Z 33011KT 310V360 7000 VCSH SCT017 BKN031 M02/M03 Q1001 RMK WIND 670FT 34020KT
  • 192320Z 30016KT 3000 -SHSN VV010 M02/M03 Q1000 RMK WIND 670FT 31032KT
  • 192250Z 28017G29KT 270V330 1500 SHSN FEW014 SCT022 BKN029 M02/M04 Q1000 RMK WIND 670FT 29019KT

AMD TAF ENVA
Valido dal 20 a 01 ore il 21 a 00 ore UTC


2001/2024 32015KT 9999 -SHSN FEW015CB BKN030
TEMPO 2001/2021 34020G32KT
TEMPO 2001/2024 0500 SHSN VV006



MetMap, La meteo Aeronautica in un colpo d'occhio ! - Copyright ORBIFLY Dicembre 2007 - Disclaimer

ORBIFLY MET'MAP TEAM :

Programmazione e sviluppo : Alexandra Zaïnal
Concezione : Baudouin d'Aumeries
Aiuto per la programmazione : Marc-Olivier Méhu
Supporto tecnico e logistico : Manuel Goepfert
Aiuto per la traduzione : Arnaldo La Scala

Contatto : metmap@orbifly.com




FONTI E CREDITI :

   NOAA